Sandusky, Ohio
Current Conditions -  °F | °C
As of 9:33 AM on Friday 24 Oct 2014 (Local Time) from KPCW Reporting Station
Clear Clear  
Wind Chill: 45°   Ceiling: Unl
Heat Index: 48°   Visibility: 9mi
Dew Point: 43°   Wind: 7mph
Humidity: 82%   Direction: 230°SW
Pressure: 30.09"   Gusts: NA
Location:  41.45°N, 82.71°W
Report Text: KPCW 241333Z AUTO 23006KT 9SM CLR 09/06 A3009 RMK AO2 $
Loading
Personal Weather Stations






























Interactive Weather Map
Tropical Storm Tracking
New forecast layout! Learn more

10-Day Weather Forecast

Advertisements
Track Severe Weather on mobile